createdAt,value
2018-12-10T10:34:15.695Z,5.30
2018-12-10T10:36:44.684Z,5.40
2018-12-10T10:39:12.136Z,5.60
2018-12-10T10:41:40.357Z,5.50
2018-12-10T10:44:08.631Z,5.40
2018-12-10T10:46:42.701Z,5.10
2018-12-10T10:49:10.897Z,4.90
2018-12-10T10:51:40.200Z,4.60
2018-12-10T10:54:08.430Z,4.80
2018-12-10T10:56:38.764Z,5.10
2018-12-10T10:59:09.172Z,4.90
2018-12-10T11:01:59.940Z,5.00
2018-12-10T11:04:28.239Z,5.20
2018-12-10T11:07:02.103Z,5.40
2018-12-10T11:09:30.687Z,5.40
2018-12-10T11:11:58.880Z,5.30
2018-12-10T11:14:36.199Z,5.60
2018-12-10T11:17:04.464Z,5.60
2018-12-10T11:19:35.624Z,5.70
2018-12-10T11:22:03.858Z,5.90
2018-12-10T11:24:34.085Z,6.10
2018-12-10T11:27:03.277Z,6.10
2018-12-10T11:29:31.603Z,6.20
2018-12-10T11:32:00.898Z,6.20
2018-12-10T11:34:30.123Z,6.40
2018-12-10T11:36:58.847Z,6.80
2018-12-10T11:39:37.977Z,6.80
2018-12-10T11:42:06.490Z,6.80
2018-12-10T11:44:38.163Z,6.60
2018-12-10T11:47:13.016Z,6.80
2018-12-10T11:50:00.524Z,7.00
2018-12-10T11:52:34.837Z,7.10
2018-12-10T11:55:04.120Z,7.20
2018-12-10T11:57:48.779Z,7.10
2018-12-10T12:00:29.666Z,7.30
2018-12-10T12:02:56.903Z,7.30
2018-12-10T12:05:26.144Z,7.30
2018-12-10T12:07:54.765Z,7.30
2018-12-10T12:10:49.896Z,7.00
2018-12-10T12:13:25.407Z,6.90
2018-12-10T12:16:18.431Z,7.20
2018-12-10T12:19:11.482Z,7.30
2018-12-10T12:21:45.115Z,7.50
2018-12-10T12:24:50.096Z,7.90
2018-12-10T12:27:20.124Z,8.10
2018-12-10T12:30:06.014Z,8.10
2018-12-10T12:33:09.429Z,7.80
2018-12-10T12:35:49.055Z,7.60
2018-12-10T12:38:27.416Z,7.40
2018-12-10T12:40:57.863Z,7.40
2018-12-10T12:43:32.851Z,7.50
2018-12-10T12:46:06.842Z,7.50
2018-12-10T12:48:54.565Z,7.60
2018-12-10T12:51:28.924Z,7.50
2018-12-10T12:54:23.441Z,7.60
2018-12-10T12:57:06.472Z,7.50
2018-12-10T12:59:36.351Z,7.40
2018-12-10T13:02:19.932Z,7.40
2018-12-10T13:05:05.110Z,7.10
2018-12-10T13:07:48.559Z,7.20
2018-12-10T13:10:35.781Z,7.30
2018-12-10T13:13:29.913Z,7.10
2018-12-10T13:16:00.610Z,7.10
2018-12-10T13:18:29.192Z,7.30
2018-12-10T13:21:06.071Z,7.20
2018-12-10T13:23:38.740Z,7.30
2018-12-10T13:26:09.932Z,7.20
2018-12-10T13:28:44.942Z,7.20
2018-12-10T13:31:15.590Z,7.40
2018-12-10T13:33:52.039Z,7.30
2018-12-10T13:36:29.018Z,7.20
2018-12-10T13:38:57.184Z,7.50
2018-12-10T13:41:49.875Z,7.60
2018-12-10T13:44:18.110Z,7.60
2018-12-10T13:46:48.360Z,7.10
2018-12-10T13:49:17.755Z,6.90
2018-12-10T13:51:48.139Z,7.00
2018-12-10T13:54:20.535Z,6.90
2018-12-10T13:56:50.039Z,6.90
2018-12-10T13:59:18.626Z,6.80
2018-12-10T14:01:48.131Z,7.00
2018-12-10T14:04:20.085Z,7.10
2018-12-10T14:06:48.651Z,7.10
2018-12-10T14:09:16.844Z,7.00
2018-12-10T14:11:52.142Z,7.10
2018-12-10T14:14:21.481Z,7.20
2018-12-10T14:16:59.869Z,7.30
2018-12-10T14:19:29.216Z,7.20
2018-12-10T14:21:58.264Z,7.10
2018-12-10T14:24:28.846Z,6.80
2018-12-10T14:27:00.844Z,6.90
2018-12-10T14:29:29.098Z,7.00
2018-12-10T14:32:08.533Z,7.10
2018-12-10T14:34:45.102Z,7.00
2018-12-10T14:37:14.385Z,7.20
2018-12-10T14:39:42.585Z,7.10
2018-12-10T14:42:25.185Z,6.90
2018-12-10T14:44:54.469Z,6.80
2018-12-10T14:47:23.728Z,6.80
2018-12-10T14:49:52.232Z,7.00
2018-12-10T14:52:22.476Z,6.90
2018-12-10T14:54:51.036Z,6.70
2018-12-10T14:57:21.259Z,6.80
2018-12-10T14:59:49.552Z,7.00
2018-12-10T15:02:18.172Z,7.00
2018-12-10T15:04:47.439Z,7.00
2018-12-10T15:07:15.732Z,6.90
2018-12-10T15:09:50.015Z,6.90
2018-12-10T15:12:20.226Z,6.90
2018-12-10T15:14:48.530Z,6.90
2018-12-10T15:17:23.747Z,6.90
2018-12-10T15:19:52.429Z,7.00
2018-12-10T15:22:22.898Z,7.00
2018-12-10T15:24:51.095Z,6.80
2018-12-10T15:27:19.303Z,6.80
2018-12-10T15:29:47.907Z,6.90
2018-12-10T15:32:16.021Z,7.10
2018-12-10T15:34:45.282Z,7.30
2018-12-10T15:37:19.381Z,7.20
2018-12-10T15:39:48.193Z,7.30
2018-12-10T15:42:17.743Z,7.10
2018-12-10T15:44:51.213Z,7.00
2018-12-10T15:47:55.662Z,6.60
2018-12-10T15:51:17.876Z,6.40
2018-12-10T15:53:46.072Z,6.40
2018-12-10T15:56:14.237Z,6.80
2018-12-10T15:58:42.400Z,7.30
2018-12-10T16:01:12.720Z,7.20
2018-12-10T16:04:04.520Z,7.20
2018-12-10T16:06:57.177Z,7.00
2018-12-10T16:09:25.463Z,7.10
2018-12-10T16:11:56.197Z,7.10
2018-12-10T16:14:25.437Z,7.10
2018-12-10T16:16:55.712Z,7.10
2018-12-10T16:19:23.975Z,7.60
2018-12-10T16:22:00.006Z,7.40
2018-12-10T16:24:29.226Z,7.40
2018-12-10T16:26:58.510Z,7.10
2018-12-10T16:29:30.159Z,6.80
2018-12-10T16:31:58.455Z,6.60
2018-12-10T16:34:28.678Z,6.60
2018-12-10T16:37:02.870Z,6.50
2018-12-10T16:39:31.159Z,6.50
2018-12-10T16:42:01.369Z,6.50
2018-12-10T16:44:30.555Z,6.60
2018-12-10T16:46:58.844Z,6.60
2018-12-10T16:49:33.961Z,6.50
2018-12-10T16:52:02.195Z,6.70
2018-12-10T16:54:30.459Z,6.40
2018-12-10T16:56:58.724Z,6.30
2018-12-10T16:59:27.328Z,6.40
2018-12-10T17:01:55.562Z,6.40
2018-12-10T17:04:23.880Z,6.20
2018-12-10T17:06:52.111Z,6.40
2018-12-10T17:09:20.387Z,6.40
2018-12-10T17:11:48.978Z,6.20
2018-12-10T17:14:17.236Z,6.10
2018-12-10T17:16:45.374Z,6.10
2018-12-10T17:19:13.582Z,5.40
2018-12-10T17:21:42.793Z,5.10
2018-12-10T17:24:11.090Z,4.50
2018-12-10T17:26:40.371Z,4.40
2018-12-10T17:29:08.629Z,4.40
2018-12-10T17:31:37.839Z,4.40
2018-12-10T17:34:06.079Z,4.50
2018-12-10T17:36:34.293Z,4.40
2018-12-10T17:39:02.538Z,4.40
2018-12-10T17:41:30.767Z,4.50
2018-12-10T17:43:58.951Z,4.50
2018-12-10T17:46:29.234Z,4.50
2018-12-10T17:48:57.554Z,4.70
2018-12-10T17:51:26.797Z,4.80
2018-12-10T17:53:55.004Z,4.80
2018-12-10T17:56:28.098Z,5.00
2018-12-10T17:58:56.435Z,4.90
2018-12-10T18:01:24.595Z,4.90
2018-12-10T18:03:58.503Z,4.90
2018-12-10T18:06:26.709Z,5.30
2018-12-10T18:08:54.988Z,5.30
2018-12-10T18:11:23.872Z,5.30
2018-12-10T18:13:52.204Z,5.40
2018-12-10T18:16:21.860Z,5.60
2018-12-10T18:18:51.503Z,5.60
2018-12-10T18:21:20.699Z,5.40
2018-12-10T18:23:50.069Z,5.30
2018-12-10T18:26:21.278Z,5.40
2018-12-10T18:28:49.560Z,5.40
2018-12-10T18:31:17.810Z,5.60
2018-12-10T18:33:47.160Z,5.70
2018-12-10T18:36:21.334Z,5.80
2018-12-10T18:39:14.435Z,5.80
2018-12-10T18:41:42.770Z,6.00
2018-12-10T18:44:32.547Z,5.70
2018-12-10T18:47:21.266Z,5.80
2018-12-10T18:53:22.198Z,5.80
2018-12-10T18:56:01.307Z,6.10
2018-12-10T18:59:02.757Z,6.10
2018-12-10T19:01:38.370Z,6.10
2018-12-10T19:04:31.290Z,6.20
2018-12-10T19:07:18.678Z,5.90
2018-12-10T19:09:46.934Z,5.80
2018-12-10T19:12:16.219Z,5.80
2018-12-10T19:15:08.709Z,5.70
2018-12-10T19:18:23.956Z,5.90
